createdAt,value
2022-08-03T00:00:29.614Z,74.76
2022-08-03T00:01:29.619Z,74.76
2022-08-03T00:02:29.622Z,74.76
2022-08-03T00:03:29.680Z,75.24
2022-08-03T00:04:33.655Z,75.24
2022-08-03T00:05:29.646Z,75.34
2022-08-03T00:06:32.662Z,75.14
2022-08-03T00:07:29.651Z,75.14
2022-08-03T00:08:29.668Z,74.82
2022-08-03T00:09:35.855Z,75.14
2022-08-03T00:10:29.674Z,74.76
2022-08-03T00:11:29.654Z,74.95
2022-08-03T00:12:29.670Z,75.14
2022-08-03T00:13:29.677Z,75.14
2022-08-03T00:14:29.702Z,75.72
2022-08-03T00:15:29.673Z,76.10
2022-08-03T00:16:29.698Z,75.72
2022-08-03T00:17:29.693Z,75.92
2022-08-03T00:18:29.712Z,76.10
2022-08-03T00:19:29.704Z,76.50
2022-08-03T00:20:29.723Z,76.20
2022-08-03T00:21:29.715Z,75.49
2022-08-03T00:22:29.720Z,75.49
2022-08-03T00:23:50.873Z,75.88
2022-08-03T00:24:29.737Z,76.36
2022-08-03T00:25:29.736Z,76.23
2022-08-03T00:26:29.743Z,76.80
2022-08-03T00:27:29.745Z,76.51
2022-08-03T00:28:29.744Z,76.90
2022-08-03T00:29:29.764Z,77.09
2022-08-03T00:30:30.906Z,77.09
2022-08-03T00:31:44.963Z,76.90
2022-08-03T00:32:29.764Z,77.28
2022-08-03T00:33:29.767Z,77.00
2022-08-03T00:34:36.486Z,77.38
2022-08-03T00:35:43.268Z,77.19
2022-08-03T00:36:29.821Z,77.09
2022-08-03T00:37:40.705Z,76.51
2022-08-03T00:38:29.805Z,76.71
2022-08-03T00:39:29.809Z,76.51
2022-08-03T00:40:29.812Z,76.80
2022-08-03T00:41:29.804Z,77.00
2022-08-03T00:42:29.837Z,76.90
2022-08-03T00:43:29.839Z,77.28
2022-08-03T00:44:29.832Z,77.28
2022-08-03T00:45:29.863Z,76.51
2022-08-03T00:46:29.836Z,76.90
2022-08-03T00:47:29.832Z,77.19
2022-08-03T00:48:33.614Z,77.58
2022-08-03T00:49:29.874Z,77.48
2022-08-03T00:50:29.853Z,77.58
2022-08-03T00:51:29.864Z,77.58
2022-08-03T00:52:29.861Z,77.28
2022-08-03T00:53:29.898Z,77.28
2022-08-03T00:54:29.868Z,77.19
2022-08-03T00:55:29.880Z,77.19
2022-08-03T00:56:29.887Z,77.00
2022-08-03T00:57:29.883Z,77.19
2022-08-03T00:58:29.887Z,77.96
2022-08-03T00:59:29.903Z,77.58
2022-08-03T01:00:29.914Z,77.58
2022-08-03T01:01:30.665Z,77.19
2022-08-03T01:02:29.905Z,77.25
2022-08-03T01:03:29.905Z,77.58
2022-08-03T01:04:29.931Z,77.96
2022-08-03T01:05:29.918Z,78.02
2022-08-03T01:06:29.927Z,78.54
2022-08-03T01:07:29.933Z,77.15
2022-08-03T01:08:29.954Z,77.67
2022-08-03T01:09:29.962Z,77.73
2022-08-03T01:10:31.568Z,77.28
2022-08-03T01:11:29.969Z,78.02
2022-08-03T01:12:29.960Z,77.44
2022-08-03T01:14:03.641Z,77.53
2022-08-03T01:14:29.974Z,77.83
2022-08-03T01:15:29.973Z,78.40
2022-08-03T01:16:37.074Z,78.40
2022-08-03T01:17:29.985Z,78.06
2022-08-03T01:18:29.990Z,78.15
2022-08-03T01:19:29.989Z,78.25
2022-08-03T01:20:29.997Z,78.15
2022-08-03T01:21:29.990Z,77.96
2022-08-03T01:22:30.019Z,77.28
2022-08-03T01:23:30.013Z,77.73
2022-08-03T01:24:30.018Z,77.28
2022-08-03T01:25:30.021Z,78.25
2022-08-03T01:26:30.033Z,77.96
2022-08-03T01:27:30.039Z,78.44
2022-08-03T01:28:30.027Z,78.06
2022-08-03T01:29:30.048Z,77.86
2022-08-03T01:30:30.043Z,77.67
2022-08-03T01:31:30.049Z,77.86
2022-08-03T01:32:58.411Z,78.15
2022-08-03T01:33:30.071Z,77.76
2022-08-03T01:34:30.050Z,77.96
2022-08-03T01:35:30.081Z,78.06
2022-08-03T01:36:30.071Z,78.63
2022-08-03T01:37:30.068Z,78.63
2022-08-03T01:38:30.087Z,78.73
2022-08-03T01:39:30.104Z,78.44
2022-08-03T01:40:30.088Z,78.63
2022-08-03T01:41:30.101Z,79.50
2022-08-03T01:42:30.106Z,79.11
2022-08-03T01:44:28.126Z,79.21
2022-08-03T01:44:31.012Z,79.41
2022-08-03T01:45:30.130Z,79.60
2022-08-03T01:46:30.128Z,78.92
2022-08-03T01:47:30.124Z,79.21
2022-08-03T01:48:30.131Z,79.31
2022-08-03T01:49:30.186Z,79.50
2022-08-03T01:50:30.133Z,79.11
2022-08-03T01:51:58.015Z,79.31
2022-08-03T01:52:30.157Z,79.50
2022-08-03T01:53:30.142Z,78.54
2022-08-03T01:54:30.157Z,78.73
2022-08-03T01:55:30.145Z,78.63
2022-08-03T01:56:30.151Z,78.73
2022-08-03T01:57:30.176Z,78.44
2022-08-03T01:58:30.181Z,78.44
2022-08-03T01:59:30.168Z,78.34
2022-08-03T02:00:30.204Z,78.34
2022-08-03T02:02:16.091Z,78.34
2022-08-03T02:02:34.184Z,77.96
2022-08-03T02:03:30.206Z,77.28
2022-08-03T02:04:30.199Z,77.48
2022-08-03T02:05:30.188Z,77.58
2022-08-03T02:07:01.755Z,77.28
2022-08-03T02:07:30.221Z,77.28
2022-08-03T02:08:30.205Z,77.67
2022-08-03T02:09:30.216Z,77.19
2022-08-03T02:10:35.593Z,77.67
2022-08-03T02:11:30.233Z,77.38
2022-08-03T02:12:30.243Z,77.28
2022-08-03T02:13:30.241Z,77.58
2022-08-03T02:14:30.280Z,77.58
2022-08-03T02:15:30.261Z,77.48
2022-08-03T02:16:30.264Z,77.28
2022-08-03T02:17:39.124Z,77.96
2022-08-03T02:18:30.279Z,77.96
2022-08-03T02:19:35.260Z,77.96
2022-08-03T02:20:30.270Z,78.06
2022-08-03T02:21:56.766Z,77.96
2022-08-03T02:22:30.280Z,78.06
2022-08-03T02:23:30.278Z,77.48
2022-08-03T02:24:30.290Z,77.38
2022-08-03T02:25:30.302Z,77.58
2022-08-03T02:26:30.292Z,77.76
2022-08-03T02:27:30.314Z,78.54
2022-08-03T02:28:30.321Z,78.44
2022-08-03T02:29:39.331Z,78.06
2022-08-03T02:30:30.330Z,77.48
2022-08-03T02:31:30.324Z,77.67
2022-08-03T02:32:30.320Z,78.06
2022-08-03T02:33:30.356Z,77.67
2022-08-03T02:34:30.338Z,77.67
2022-08-03T02:35:30.326Z,77.48
2022-08-03T02:36:31.416Z,77.28
2022-08-03T02:37:30.336Z,77.48
2022-08-03T02:38:30.375Z,76.71
2022-08-03T02:39:30.341Z,76.61
2022-08-03T02:40:30.394Z,76.51
2022-08-03T02:41:30.365Z,76.32
2022-08-03T02:42:30.384Z,76.32
2022-08-03T02:43:30.370Z,76.23
2022-08-03T02:44:30.409Z,76.61
2022-08-03T02:45:30.386Z,76.90
2022-08-03T02:46:30.393Z,77.19
2022-08-03T02:47:53.417Z,77.38
2022-08-03T02:48:30.384Z,77.00
2022-08-03T02:49:49.501Z,77.19
2022-08-03T02:50:30.421Z,76.61
2022-08-03T02:51:30.412Z,76.61
2022-08-03T02:52:30.401Z,77.15
2022-08-03T02:53:30.413Z,77.38
2022-08-03T02:54:30.433Z,77.76
2022-08-03T02:55:30.436Z,77.48
2022-08-03T02:56:30.438Z,77.48
2022-08-03T02:57:30.446Z,77.19
2022-08-03T02:58:30.441Z,77.58
2022-08-03T02:59:30.436Z,76.90
2022-08-03T03:00:30.458Z,77.00
2022-08-03T03:01:30.529Z,77.09
2022-08-03T03:02:30.462Z,77.19
2022-08-03T03:03:30.644Z,77.38
2022-08-03T03:04:33.078Z,77.67
2022-08-03T03:05:54.865Z,77.28
2022-08-03T03:06:30.490Z,77.09
2022-08-03T03:07:31.309Z,77.09
2022-08-03T03:08:30.487Z,77.19
2022-08-03T03:09:40.294Z,77.19
2022-08-03T03:10:30.505Z,77.28
2022-08-03T03:11:30.491Z,77.00
2022-08-03T03:12:30.514Z,77.00
2022-08-03T03:13:30.545Z,77.28
2022-08-03T03:14:33.912Z,77.38
2022-08-03T03:15:30.530Z,77.76
2022-08-03T03:16:30.518Z,77.58
2022-08-03T03:17:30.518Z,78.25
2022-08-03T03:18:30.544Z,77.76
2022-08-03T03:19:30.528Z,77.96
2022-08-03T03:20:30.729Z,77.86
2022-08-03T03:21:30.535Z,77.76
2022-08-03T03:22:30.549Z,78.06
2022-08-03T03:23:30.655Z,78.06
2022-08-03T03:24:30.557Z,78.06
2022-08-03T03:25:30.556Z,78.15
2022-08-03T03:26:30.561Z,78.54
2022-08-03T03:27:30.580Z,78.63
2022-08-03T03:28:30.563Z,78.54
2022-08-03T03:29:30.570Z,78.54
2022-08-03T03:30:30.572Z,78.63
2022-08-03T03:31:30.582Z,79.02
2022-08-03T03:32:30.615Z,79.50
2022-08-03T03:33:30.599Z,78.73
2022-08-03T03:34:30.621Z,79.11
2022-08-03T03:35:30.606Z,79.11
2022-08-03T03:36:30.623Z,79.60
2022-08-03T03:37:31.622Z,78.73
2022-08-03T03:38:30.611Z,78.59
2022-08-03T03:39:30.631Z,78.63
2022-08-03T03:40:30.630Z,78.92
2022-08-03T03:41:30.648Z,79.66
2022-08-03T03:42:30.626Z,79.85
2022-08-03T03:43:30.660Z,80.81
2022-08-03T03:44:30.647Z,80.81
2022-08-03T03:45:30.648Z,81.39
2022-08-03T03:46:30.668Z,81.58
2022-08-03T03:47:32.321Z,81.58
2022-08-03T03:48:30.659Z,82.06
2022-08-03T03:49:30.738Z,81.77
2022-08-03T03:50:30.722Z,81.68
2022-08-03T03:51:30.708Z,81.68
2022-08-03T03:52:30.700Z,81.10
2022-08-03T03:53:30.695Z,81.20
2022-08-03T03:54:30.708Z,81.96
2022-08-03T03:55:30.683Z,81.20
2022-08-03T03:56:30.691Z,81.20
2022-08-03T03:57:30.730Z,81.48
2022-08-03T03:58:30.695Z,81.68
2022-08-03T03:59:30.708Z,81.45
2022-08-03T04:00:30.720Z,80.96
2022-08-03T04:01:30.721Z,81.25
2022-08-03T04:02:30.762Z,81.93
2022-08-03T04:03:30.746Z,81.25
2022-08-03T04:04:30.725Z,81.54
2022-08-03T04:05:30.725Z,82.21
2022-08-03T04:06:30.757Z,82.60
2022-08-03T04:07:30.744Z,82.31
2022-08-03T04:08:30.741Z,82.41
2022-08-03T04:09:30.776Z,82.21
2022-08-03T04:10:30.760Z,82.16
2022-08-03T04:13:09.677Z,82.26
2022-08-03T04:14:09.659Z,82.16
2022-08-03T04:15:09.685Z,82.64
2022-08-03T04:16:09.665Z,82.45
2022-08-03T04:17:09.684Z,82.45
2022-08-03T04:18:09.678Z,81.96
2022-08-03T04:19:09.680Z,82.16
2022-08-03T04:20:09.701Z,82.16
2022-08-03T04:21:09.704Z,81.96
2022-08-03T04:22:09.733Z,82.10
2022-08-03T04:23:12.828Z,81.96
2022-08-03T04:24:09.709Z,81.77
2022-08-03T04:25:09.733Z,81.48
2022-08-03T04:26:09.714Z,81.81
2022-08-03T04:27:09.724Z,81.33
2022-08-03T04:28:31.088Z,81.72
2022-08-03T04:29:09.734Z,80.94
2022-08-03T04:30:09.731Z,81.14
2022-08-03T04:31:09.757Z,79.31
2022-08-03T04:32:09.786Z,79.50
2022-08-03T04:33:09.749Z,79.98
2022-08-03T04:34:09.743Z,79.69
2022-08-03T04:35:09.751Z,79.98
2022-08-03T04:36:09.795Z,79.69
2022-08-03T04:37:09.775Z,79.60
2022-08-03T04:38:09.757Z,79.69
2022-08-03T04:39:09.776Z,79.69
2022-08-03T04:40:09.765Z,80.56
2022-08-03T04:41:09.794Z,80.27
2022-08-03T04:42:09.854Z,80.27
2022-08-03T04:43:09.790Z,80.56
2022-08-03T04:44:09.783Z,80.56
2022-08-03T04:45:09.794Z,80.37
2022-08-03T04:46:09.789Z,80.62
2022-08-03T04:47:09.806Z,80.62
2022-08-03T04:48:09.848Z,79.98
2022-08-03T04:49:09.842Z,80.08
2022-08-03T04:50:12.972Z,78.88
2022-08-03T04:51:09.832Z,78.73
2022-08-03T04:52:10.096Z,78.63
2022-08-03T04:53:09.857Z,78.25
2022-08-03T04:54:09.841Z,78.34
2022-08-03T04:55:09.833Z,78.15
2022-08-03T04:56:09.837Z,78.73
2022-08-03T04:57:09.858Z,78.34
2022-08-03T04:58:09.888Z,78.83
2022-08-03T04:59:09.864Z,78.83
2022-08-03T05:00:09.855Z,78.54
2022-08-03T05:01:09.871Z,78.06
2022-08-03T05:02:09.944Z,77.83
2022-08-03T05:03:20.414Z,77.83
2022-08-03T05:04:09.884Z,77.86
2022-08-03T05:05:09.888Z,77.76
2022-08-03T05:06:11.502Z,78.15
2022-08-03T05:07:11.562Z,77.28
2022-08-03T05:08:11.199Z,77.28
2022-08-03T05:09:09.894Z,77.28
2022-08-03T05:10:15.186Z,77.48
2022-08-03T05:11:09.926Z,77.28
2022-08-03T05:12:09.971Z,77.67
2022-08-03T05:13:09.937Z,77.76
2022-08-03T05:14:09.924Z,78.34
2022-08-03T05:15:09.935Z,77.96
2022-08-03T05:16:09.934Z,77.58
2022-08-03T05:17:09.940Z,77.76
2022-08-03T05:18:13.868Z,78.25
2022-08-03T05:19:09.964Z,77.67
2022-08-03T05:20:09.942Z,77.86
2022-08-03T05:21:09.993Z,77.67
2022-08-03T05:22:10.044Z,78.34
2022-08-03T05:23:09.967Z,78.54
2022-08-03T05:24:09.963Z,78.63
2022-08-03T05:25:09.976Z,78.48
2022-08-03T05:26:09.986Z,78.00
2022-08-03T05:27:09.987Z,78.29
2022-08-03T05:28:09.982Z,77.42
2022-08-03T05:29:09.991Z,78.19
2022-08-03T05:30:30.839Z,77.33
2022-08-03T05:31:10.007Z,77.13
2022-08-03T05:32:10.112Z,76.84
2022-08-03T05:33:10.004Z,76.45
2022-08-03T05:34:10.017Z,75.97
2022-08-03T05:35:57.413Z,75.88
2022-08-03T05:36:10.014Z,76.26
2022-08-03T05:37:10.032Z,76.01
2022-08-03T05:38:10.023Z,75.82
2022-08-03T05:39:10.019Z,75.72
2022-08-03T05:40:10.055Z,75.53
2022-08-03T05:41:22.474Z,74.76
2022-08-03T05:42:10.097Z,74.76
2022-08-03T05:43:10.043Z,74.76
2022-08-03T05:44:10.069Z,74.76
2022-08-03T05:45:10.062Z,74.47
2022-08-03T05:46:12.455Z,74.95
2022-08-03T05:47:10.072Z,74.02
2022-08-03T05:48:10.066Z,73.89
2022-08-03T05:49:10.167Z,73.54
2022-08-03T05:50:10.089Z,74.02
2022-08-03T05:51:10.087Z,73.54
2022-08-03T05:52:12.106Z,72.96
2022-08-03T05:53:10.095Z,72.48
2022-08-03T05:54:10.116Z,72.09
2022-08-03T05:55:10.105Z,71.90
2022-08-03T05:56:14.950Z,71.22
2022-08-03T05:57:10.110Z,71.61
2022-08-03T05:58:10.160Z,71.26
2022-08-03T05:59:35.733Z,71.64
2022-08-03T06:00:10.141Z,71.94
2022-08-03T06:01:10.190Z,70.58
2022-08-03T06:02:10.183Z,69.71
2022-08-03T06:03:10.132Z,68.75
2022-08-03T06:04:10.164Z,68.17
2022-08-03T06:05:10.153Z,69.07
2022-08-03T06:06:10.153Z,68.88
2022-08-03T06:07:10.154Z,68.40
2022-08-03T06:08:10.170Z,68.30
2022-08-03T06:09:10.173Z,68.30
2022-08-03T06:10:35.573Z,67.85
2022-08-03T06:11:10.187Z,67.17
2022-08-03T06:12:14.095Z,66.78
2022-08-03T06:13:10.208Z,67.17
2022-08-03T06:14:10.386Z,67.08
2022-08-03T06:15:11.302Z,67.08
2022-08-03T06:16:10.218Z,66.53
2022-08-03T06:17:10.208Z,67.11
2022-08-03T06:18:10.217Z,66.53
2022-08-03T06:19:10.234Z,66.82
2022-08-03T06:20:10.228Z,66.63
2022-08-03T06:21:15.713Z,66.05
2022-08-03T06:22:10.294Z,66.95
2022-08-03T06:23:15.223Z,66.75
2022-08-03T06:24:10.257Z,66.75
2022-08-03T06:25:12.838Z,65.98
2022-08-03T06:26:10.296Z,65.98
2022-08-03T06:27:10.245Z,66.56
2022-08-03T06:28:19.135Z,65.79
2022-08-03T06:29:10.280Z,65.01
2022-08-03T06:30:10.270Z,65.53
2022-08-03T06:31:10.276Z,65.24
2022-08-03T06:32:10.328Z,64.75
2022-08-03T06:33:10.291Z,64.47
2022-08-03T06:34:32.395Z,64.66
2022-08-03T06:35:10.287Z,64.17
2022-08-03T06:36:10.308Z,64.79
2022-08-03T06:37:10.330Z,64.11
2022-08-03T06:38:10.344Z,63.72
2022-08-03T06:39:10.314Z,62.07
2022-08-03T06:40:10.333Z,62.75
2022-08-03T06:41:10.331Z,62.07
2022-08-03T06:42:10.365Z,61.59
2022-08-03T06:43:12.638Z,61.69
2022-08-03T06:44:10.466Z,62.01
2022-08-03T06:45:10.361Z,61.91
2022-08-03T06:46:10.379Z,61.14
2022-08-03T06:47:10.374Z,60.36
2022-08-03T06:48:10.376Z,60.94
2022-08-03T06:49:10.464Z,60.75
2022-08-03T06:50:17.020Z,60.78
2022-08-03T06:51:10.385Z,60.20
2022-08-03T06:52:10.398Z,59.52
2022-08-03T06:53:19.246Z,59.42
2022-08-03T06:54:10.412Z,59.81
2022-08-03T06:55:10.431Z,58.55
2022-08-03T06:56:10.433Z,58.77
2022-08-03T06:57:10.445Z,58.39
2022-08-03T06:58:10.451Z,58.39
2022-08-03T06:59:10.452Z,57.90
2022-08-03T07:00:12.290Z,58.48
2022-08-03T07:01:10.507Z,57.83
2022-08-03T07:02:10.556Z,56.96
2022-08-03T07:03:10.464Z,56.96
2022-08-03T07:04:10.462Z,56.96
2022-08-03T07:05:10.469Z,57.34
2022-08-03T07:06:10.476Z,57.25
2022-08-03T07:07:10.488Z,57.06
2022-08-03T07:08:10.529Z,56.98
2022-08-03T07:09:10.512Z,56.70
2022-08-03T07:10:10.501Z,56.11
2022-08-03T07:11:10.519Z,56.11
2022-08-03T07:12:10.613Z,56.98
2022-08-03T07:13:10.562Z,57.18
2022-08-03T07:14:10.540Z,57.08
2022-08-03T07:15:20.537Z,55.73
2022-08-03T07:16:10.558Z,55.75
2022-08-03T07:17:11.948Z,56.04
2022-08-03T07:18:10.575Z,55.75
2022-08-03T07:19:10.585Z,55.85
2022-08-03T07:20:10.596Z,55.75
2022-08-03T07:21:10.578Z,56.34
2022-08-03T07:22:10.580Z,56.24
2022-08-03T07:23:18.860Z,55.85
2022-08-03T07:24:10.601Z,55.65
2022-08-03T07:25:10.634Z,55.88
2022-08-03T07:26:10.605Z,55.36
2022-08-03T07:27:10.626Z,55.29
2022-08-03T07:28:10.638Z,55.68
2022-08-03T07:29:15.170Z,55.88
2022-08-03T07:30:10.632Z,55.68
2022-08-03T07:31:10.666Z,55.58
2022-08-03T07:32:10.669Z,55.88
2022-08-03T07:33:10.665Z,54.52
2022-08-03T07:34:10.665Z,55.41
2022-08-03T07:35:24.505Z,55.80
2022-08-03T07:36:10.697Z,55.22
2022-08-03T07:37:10.704Z,55.32
2022-08-03T07:38:10.690Z,55.03
2022-08-03T07:39:15.806Z,55.51
2022-08-03T07:40:10.725Z,55.51
2022-08-03T07:41:10.704Z,54.96
2022-08-03T07:42:10.807Z,55.35
2022-08-03T07:43:10.737Z,55.05
2022-08-03T07:44:10.750Z,54.18
2022-08-03T07:45:16.704Z,54.38
2022-08-03T07:46:10.758Z,54.18
2022-08-03T07:47:10.779Z,54.18
2022-08-03T07:48:12.573Z,53.89
2022-08-03T07:49:10.824Z,54.18
2022-08-03T07:50:10.798Z,54.96
2022-08-03T07:51:10.790Z,54.38
2022-08-03T07:52:10.892Z,54.30
2022-08-03T07:53:10.807Z,53.81
2022-08-03T07:54:10.806Z,53.52
2022-08-03T07:55:10.844Z,53.72
2022-08-03T07:56:10.817Z,53.42
2022-08-03T07:57:10.844Z,53.62
2022-08-03T07:58:10.860Z,53.52
2022-08-03T07:59:10.856Z,52.65
2022-08-03T08:00:10.857Z,53.04
2022-08-03T08:01:10.934Z,53.52
2022-08-03T08:02:10.917Z,53.14
2022-08-03T08:03:10.869Z,53.33
2022-08-03T08:04:10.894Z,53.52
2022-08-03T08:05:10.911Z,52.75
2022-08-03T08:06:10.916Z,53.52
2022-08-03T08:07:10.911Z,53.81
2022-08-03T08:08:10.921Z,53.55
2022-08-03T08:09:10.942Z,52.67
2022-08-03T08:10:10.939Z,52.77
2022-08-03T08:11:10.966Z,52.19
2022-08-03T08:12:15.288Z,52.38
2022-08-03T08:13:10.954Z,52.77
2022-08-03T08:14:10.968Z,52.77
2022-08-03T08:15:11.001Z,51.99
2022-08-03T08:16:10.999Z,52.67
2022-08-03T08:17:10.989Z,52.38
2022-08-03T08:18:11.000Z,52.67
2022-08-03T08:19:11.011Z,52.02
2022-08-03T08:20:11.053Z,52.89
2022-08-03T08:21:11.022Z,52.80
2022-08-03T08:22:11.038Z,52.80
2022-08-03T08:23:42.353Z,52.60
2022-08-03T08:24:11.072Z,51.43
2022-08-03T08:25:11.055Z,52.31
2022-08-03T08:26:11.066Z,50.07
2022-08-03T08:27:11.069Z,52.31
2022-08-03T08:28:31.449Z,52.12
2022-08-03T08:29:11.091Z,51.43
2022-08-03T08:30:13.883Z,51.14
2022-08-03T08:31:11.100Z,51.63
2022-08-03T08:32:11.101Z,51.24
2022-08-03T08:33:22.464Z,51.26
2022-08-03T08:34:11.135Z,50.95
2022-08-03T08:35:11.147Z,50.78
2022-08-03T08:36:15.216Z,50.48
2022-08-03T08:37:11.148Z,50.58
2022-08-03T08:38:11.165Z,50.09
2022-08-03T08:39:11.153Z,50.09
2022-08-03T08:40:11.169Z,50.09
2022-08-03T08:41:11.172Z,50.78
2022-08-03T08:42:11.200Z,51.36
2022-08-03T08:43:11.207Z,50.78
2022-08-03T08:44:11.212Z,50.48
2022-08-03T08:45:11.218Z,50.38
2022-08-03T08:46:11.226Z,50.48
2022-08-03T08:47:11.240Z,50.09
2022-08-03T08:48:11.234Z,49.93
2022-08-03T08:49:11.290Z,50.51
2022-08-03T08:50:16.578Z,50.80
2022-08-03T08:51:11.270Z,50.60
2022-08-03T08:52:25.034Z,50.21
2022-08-03T08:53:17.357Z,50.31
2022-08-03T08:54:11.296Z,50.34
2022-08-03T08:55:11.315Z,49.34
2022-08-03T08:56:11.309Z,49.17
2022-08-03T08:57:33.047Z,50.31
2022-08-03T08:58:11.327Z,49.63
2022-08-03T08:59:11.319Z,49.66
2022-08-03T09:00:11.370Z,49.85
2022-08-03T09:01:11.401Z,49.54
2022-08-03T09:02:11.364Z,49.24
2022-08-03T09:03:11.950Z,48.97
2022-08-03T09:04:11.380Z,48.36
2022-08-03T09:05:11.382Z,48.78
2022-08-03T09:06:11.463Z,48.49
2022-08-03T09:07:20.045Z,49.66
2022-08-03T09:08:11.410Z,49.07
2022-08-03T09:09:11.408Z,48.78
2022-08-03T09:10:13.700Z,49.17
2022-08-03T09:11:12.214Z,49.49
2022-08-03T09:12:37.502Z,49.46
2022-08-03T09:13:11.443Z,49.07
2022-08-03T09:14:11.451Z,48.88
2022-08-03T09:15:17.049Z,49.29
2022-08-03T09:16:11.489Z,49.00
2022-08-03T09:17:17.529Z,49.49
2022-08-03T09:18:11.494Z,49.68
2022-08-03T09:19:11.497Z,48.32
2022-08-03T09:20:11.500Z,47.63
2022-08-03T09:21:30.216Z,46.75
2022-08-03T09:22:11.521Z,46.75
2022-08-03T09:23:51.748Z,47.34
2022-08-03T09:24:25.717Z,47.14
2022-08-03T09:25:26.357Z,47.73
2022-08-03T09:26:11.575Z,47.14
2022-08-03T09:27:11.560Z,47.44
2022-08-03T09:28:11.587Z,47.63
2022-08-03T09:29:14.862Z,47.83
2022-08-03T09:30:33.471Z,47.53
2022-08-03T09:31:11.642Z,47.05
2022-08-03T09:32:11.615Z,47.73
2022-08-03T09:33:11.617Z,47.73
2022-08-03T09:34:11.620Z,49.39
2022-08-03T09:35:11.852Z,48.80
2022-08-03T09:36:11.667Z,48.02
2022-08-03T09:37:11.672Z,47.85
2022-08-03T09:38:13.592Z,47.27
2022-08-03T09:39:11.668Z,47.46
2022-08-03T09:40:11.696Z,46.97
2022-08-03T09:41:11.699Z,46.78
2022-08-03T09:42:11.708Z,46.39
2022-08-03T09:43:11.726Z,47.17
2022-08-03T09:44:25.407Z,46.68
2022-08-03T09:45:11.731Z,46.48
2022-08-03T09:46:11.730Z,47.46
2022-08-03T09:47:11.755Z,47.66
2022-08-03T09:48:11.755Z,46.89
2022-08-03T09:49:12.047Z,46.80
2022-08-03T09:50:11.777Z,46.41
2022-08-03T09:51:32.325Z,46.41
2022-08-03T09:52:38.867Z,46.41
2022-08-03T09:53:11.847Z,46.11
2022-08-03T09:54:18.880Z,45.72
2022-08-03T09:55:23.667Z,46.53
2022-08-03T09:56:34.480Z,45.43
2022-08-03T09:57:11.847Z,45.53
2022-08-03T09:58:11.850Z,45.33
2022-08-03T09:59:11.853Z,45.62
2022-08-03T10:00:11.863Z,45.33
2022-08-03T10:01:24.019Z,46.01
2022-08-03T10:02:11.874Z,46.23
2022-08-03T10:03:11.912Z,45.23
2022-08-03T10:04:11.893Z,46.43
2022-08-03T10:05:19.664Z,45.65
2022-08-03T10:06:11.917Z,44.96
2022-08-03T10:07:11.913Z,45.45
2022-08-03T10:08:11.958Z,46.43
2022-08-03T10:09:11.948Z,46.62
2022-08-03T10:10:30.346Z,45.37
2022-08-03T10:11:11.955Z,44.59
2022-08-03T10:12:11.986Z,44.30
2022-08-03T10:13:11.986Z,44.62
2022-08-03T10:14:12.031Z,44.42
2022-08-03T10:16:21.915Z,44.13
2022-08-03T10:16:22.183Z,43.84
2022-08-03T10:17:12.019Z,44.42
2022-08-03T10:18:12.024Z,43.15
2022-08-03T10:19:12.055Z,43.73
2022-08-03T10:20:12.117Z,43.15
2022-08-03T10:21:12.068Z,43.05
2022-08-03T10:22:12.071Z,43.93
2022-08-03T10:23:12.075Z,43.85
2022-08-03T10:24:12.081Z,44.44
2022-08-03T10:25:12.084Z,43.56
2022-08-03T10:26:12.122Z,42.97
2022-08-03T10:27:12.114Z,43.37
2022-08-03T10:28:12.124Z,43.17
2022-08-03T10:29:12.377Z,42.99
2022-08-03T10:30:12.156Z,43.09
2022-08-03T10:31:12.154Z,43.19
2022-08-03T10:32:12.178Z,42.50
2022-08-03T10:33:50.369Z,42.99
2022-08-03T10:34:12.189Z,42.50
2022-08-03T10:35:20.658Z,43.19
2022-08-03T10:36:12.205Z,42.33
2022-08-03T10:37:12.227Z,42.60
2022-08-03T10:38:12.217Z,41.84
2022-08-03T10:39:16.076Z,41.94
2022-08-03T10:40:16.217Z,42.03
2022-08-03T10:41:12.265Z,41.84
2022-08-03T10:42:14.648Z,42.35
2022-08-03T10:43:12.278Z,42.25
2022-08-03T10:44:12.295Z,41.56
2022-08-03T10:45:12.304Z,41.76
2022-08-03T10:46:12.338Z,42.05
2022-08-03T10:47:12.312Z,42.45
2022-08-03T10:48:12.354Z,42.37
2022-08-03T10:49:12.409Z,42.29
2022-08-03T10:50:12.366Z,42.39
2022-08-03T10:51:12.376Z,41.92
2022-08-03T10:52:13.758Z,42.21
2022-08-03T10:53:12.789Z,41.94
2022-08-03T10:54:12.426Z,41.06
2022-08-03T10:55:12.434Z,40.08
2022-08-03T10:56:12.455Z,39.39
2022-08-03T10:57:13.820Z,39.21
2022-08-03T10:58:12.497Z,39.32
2022-08-03T10:59:12.503Z,39.82
2022-08-03T11:00:12.522Z,38.66
2022-08-03T11:01:12.614Z,38.48
2022-08-03T11:02:12.559Z,37.99
2022-08-03T11:03:12.579Z,37.61
2022-08-03T11:04:16.669Z,37.91
2022-08-03T11:05:12.611Z,37.91
2022-08-03T11:06:12.660Z,37.61
2022-08-03T11:07:12.700Z,38.62
2022-08-03T11:08:12.649Z,38.24
2022-08-03T11:09:12.698Z,36.58
2022-08-03T11:10:12.687Z,36.70
2022-08-03T11:11:12.757Z,36.44
2022-08-03T11:12:12.738Z,35.85
2022-08-03T11:13:12.758Z,35.86
2022-08-03T11:14:12.764Z,35.57
2022-08-03T11:15:12.791Z,35.68
2022-08-03T11:16:18.335Z,35.78
2022-08-03T11:17:14.512Z,35.30
2022-08-03T11:18:12.891Z,35.02
2022-08-03T11:19:12.870Z,35.53
2022-08-03T11:20:12.887Z,34.46
2022-08-03T11:21:12.917Z,33.47
2022-08-03T11:22:12.925Z,33.49
2022-08-03T11:23:12.989Z,33.89
2022-08-03T11:24:12.979Z,33.61
2022-08-03T11:25:54.054Z,33.31
2022-08-03T11:26:13.014Z,33.39
2022-08-03T11:27:13.044Z,33.62
2022-08-03T11:28:13.056Z,32.63
2022-08-03T11:29:13.082Z,33.04
2022-08-03T11:30:13.086Z,32.66
2022-08-03T11:31:32.711Z,32.99
2022-08-03T11:32:16.686Z,32.31
2022-08-03T11:33:13.148Z,31.83
2022-08-03T11:34:13.205Z,31.13
2022-08-03T11:35:13.194Z,31.46
2022-08-03T11:36:13.218Z,29.27
2022-08-03T11:37:13.233Z,29.86
2022-08-03T11:38:13.261Z,29.17
2022-08-03T11:39:13.278Z,29.75
2022-08-03T11:40:13.294Z,29.35
2022-08-03T11:41:13.311Z,29.55
2022-08-03T11:42:13.320Z,29.95
2022-08-03T11:43:13.337Z,30.94
2022-08-03T11:44:13.339Z,30.15
2022-08-03T11:45:13.389Z,30.75
2022-08-03T11:46:13.397Z,31.46
2022-08-03T11:47:13.428Z,29.78
2022-08-03T11:48:13.439Z,30.18
2022-08-03T11:49:13.460Z,29.48
2022-08-03T11:50:13.454Z,29.55
2022-08-03T11:51:13.475Z,29.54
2022-08-03T11:52:13.478Z,29.91
2022-08-03T11:53:13.494Z,29.99
2022-08-03T11:54:13.524Z,30.36
2022-08-03T11:55:13.534Z,30.83
2022-08-03T11:56:13.558Z,31.23
2022-08-03T11:57:13.569Z,32.42
2022-08-03T11:59:10.651Z,32.21
2022-08-03T11:59:20.293Z,32.21
2022-08-03T12:00:13.620Z,32.10
2022-08-03T12:01:13.627Z,32.28
2022-08-03T12:02:13.644Z,33.56
2022-08-03T12:03:13.768Z,34.03
2022-08-03T12:04:13.676Z,34.22
2022-08-03T12:05:13.699Z,35.70
2022-08-03T12:06:13.728Z,35.68
2022-08-03T12:07:13.767Z,35.98
2022-08-03T12:08:13.746Z,36.47
2022-08-03T12:09:13.755Z,35.76
2022-08-03T12:10:13.765Z,35.37
2022-08-03T12:11:13.768Z,35.64
2022-08-03T12:12:13.789Z,35.45
2022-08-03T12:14:35.761Z,35.35
2022-08-03T12:14:49.909Z,35.55
2022-08-03T12:15:13.865Z,36.04
2022-08-03T12:16:13.852Z,36.02
2022-08-03T12:17:13.862Z,35.61
2022-08-03T12:18:13.875Z,35.81
2022-08-03T12:19:13.874Z,35.89
2022-08-03T12:20:13.921Z,36.68
2022-08-03T12:21:13.912Z,36.96
2022-08-03T12:22:13.948Z,37.26
2022-08-03T12:23:13.938Z,37.85
2022-08-03T12:24:13.962Z,37.93
2022-08-03T12:25:13.971Z,37.95
2022-08-03T12:26:13.987Z,37.74
2022-08-03T12:27:13.980Z,36.76
2022-08-03T12:28:36.295Z,37.53
2022-08-03T12:29:14.017Z,37.53
2022-08-03T12:30:14.043Z,37.43
2022-08-03T12:31:14.044Z,37.02
2022-08-03T12:32:14.066Z,37.12
2022-08-03T12:33:14.083Z,36.53
2022-08-03T12:34:14.085Z,37.22
2022-08-03T12:35:14.096Z,37.81
2022-08-03T12:36:14.139Z,38.30
2022-08-03T12:37:22.142Z,38.28
2022-08-03T12:38:14.146Z,38.30
2022-08-03T12:39:14.143Z,37.61
2022-08-03T12:40:17.776Z,37.89
2022-08-03T12:41:14.184Z,38.01
2022-08-03T12:42:14.197Z,37.61
2022-08-03T12:43:14.207Z,38.10
2022-08-03T12:44:14.214Z,37.89
2022-08-03T12:45:14.256Z,38.40
2022-08-03T12:46:14.232Z,37.79
2022-08-03T12:47:14.240Z,37.87
2022-08-03T12:48:14.260Z,38.46
2022-08-03T12:49:14.295Z,39.15
2022-08-03T12:50:14.289Z,38.78
2022-08-03T12:51:14.302Z,38.26
2022-08-03T12:52:14.319Z,38.56
2022-08-03T12:53:14.318Z,38.87
2022-08-03T12:54:14.328Z,39.56